CheckWX is a tool to help pilots better visualize weather data.  It is not intended as a substitute for an official pre-flight weather briefing.

05:18:46 UTC

CYXE METAR
Saskatoon John G. Diefenbaker International Airport
Saskatoon, Canada
Current

1 hour ago

CYXE 200400Z 20008KT 15SM SKC M18/M21 A2972 RMK SLP118
Observed
Feb-20 @ 04:00 UTC
Wind
  • 200° at 8 KTS
Visibility
24,140 meters
Flight Rules
VFR
Cloud Levels
  • Clear skies
Temperature
-18°C / -0°F
Dewpoint
-21°C / -6°F
Humidity
78%
Altimeter
29.72" Hg
Pressure
1011.8 hPa
Previous

2 hours ago

CYXE 200300Z 20008KT 15SM SKC M17/M20 A2973 RMK SLP122
Observed
Feb-20 @ 03:00 UTC
Wind
  • 200° at 8 KTS
Visibility
24,140 meters
Flight Rules
VFR
Cloud Levels
  • Clear skies
Temperature
-17°C / 1°F
Dewpoint
-20°C / -4°F
Humidity
78%
Altimeter
29.73" Hg
Pressure
1012.2 hPa
Previous

3 hours ago

CYXE 200200Z 19008KT 15SM FEW300 M17/M20 A2973 RMK CI2 SLP125
Observed
Feb-20 @ 02:00 UTC
Wind
  • 190° at 8 KTS
Visibility
24,140 meters
Flight Rules
VFR
Cloud Levels
  • Few at 30,000' AGL
Temperature
-17°C / 1°F
Dewpoint
-20°C / -4°F
Humidity
78%
Altimeter
29.73" Hg
Pressure
1012.5 hPa